createdAt,value
2022-07-27T01:14:59.897Z,17.70
2022-07-27T03:38:42.757Z,17.90
2022-07-27T03:41:10.582Z,18.00
2022-07-27T03:43:37.951Z,18.20
2022-07-27T03:46:05.490Z,18.40
2022-07-27T03:48:32.911Z,18.50
2022-07-27T03:51:00.550Z,18.60
2022-07-27T03:56:07.372Z,18.60
2022-07-27T03:58:34.849Z,18.60
2022-07-27T04:01:02.326Z,18.60
2022-07-27T04:03:29.965Z,18.50
2022-07-27T04:05:57.523Z,18.60
2022-07-27T04:08:25.017Z,18.50
2022-07-27T05:14:26.560Z,19.10
2022-07-27T06:15:02.642Z,19.60
2022-07-27T06:17:46.844Z,19.70
2022-07-27T07:14:46.559Z,19.70
2022-07-27T07:46:01.217Z,20.00
2022-07-27T08:08:55.709Z,20.60
2022-07-27T08:11:23.147Z,20.60
2022-07-27T08:20:39.601Z,20.10
2022-07-27T09:27:37.699Z,20.90
2022-07-27T10:38:58.967Z,23.30
2022-07-27T11:56:26.960Z,21.90
2022-07-27T12:18:59.310Z,22.20
2022-07-27T12:35:54.226Z,22.70
2022-07-27T12:38:21.893Z,22.40
2022-07-27T12:40:58.270Z,22.50
2022-07-27T12:43:29.535Z,22.70
2022-07-27T12:45:57.265Z,22.90
2022-07-27T12:48:49.375Z,23.00
2022-07-27T12:51:26.460Z,22.80
2022-07-27T12:57:04.828Z,23.00
2022-07-27T13:21:06.277Z,21.50
2022-07-27T13:23:35.198Z,21.20
2022-07-27T13:28:36.800Z,20.80
2022-07-27T13:31:04.224Z,20.80
2022-07-27T13:33:31.824Z,20.80
2022-07-27T13:36:00.821Z,20.70
2022-07-27T13:38:28.844Z,20.60
2022-07-27T13:40:56.520Z,20.60
2022-07-27T13:43:27.422Z,20.50
2022-07-27T13:48:45.453Z,20.50
2022-07-27T13:51:13.405Z,20.60
2022-07-27T14:01:52.783Z,20.40
2022-07-27T14:04:22.460Z,20.30
2022-07-27T14:20:15.279Z,20.10
2022-07-27T14:22:42.761Z,19.90
2022-07-27T14:25:11.535Z,19.90
2022-07-27T14:30:54.011Z,20.10
2022-07-27T14:33:22.078Z,20.00
2022-07-27T14:35:49.760Z,19.80
2022-07-27T14:38:24.809Z,19.70
2022-07-27T14:43:31.865Z,19.70
2022-07-27T15:06:04.768Z,19.80
2022-07-27T15:08:35.403Z,19.90
2022-07-27T15:14:11.276Z,19.40
2022-07-27T15:16:39.384Z,19.40
2022-07-27T15:19:08.353Z,19.20
2022-07-27T15:21:35.889Z,19.20
2022-07-27T15:30:42.108Z,19.30
2022-07-27T15:33:09.746Z,19.30
2022-07-27T15:35:37.624Z,19.40
2022-07-27T15:38:05.157Z,19.40
2022-07-27T15:40:38.679Z,19.40
2022-07-27T15:49:05.308Z,19.30
2022-07-27T15:51:33.323Z,19.20
2022-07-27T15:59:23.010Z,19.10
2022-07-27T16:01:51.407Z,19.10
2022-07-27T16:15:09.484Z,19.10
2022-07-27T16:17:37.441Z,19.10
2022-07-27T16:20:05.705Z,19.30
2022-07-27T16:22:34.610Z,19.30
2022-07-27T16:53:06.470Z,19.00
2022-07-27T16:55:34.371Z,18.90
2022-07-27T16:58:01.979Z,19.10
2022-07-27T17:00:31.266Z,19.10
2022-07-27T17:54:35.969Z,18.10
2022-07-27T17:57:03.488Z,18.10
2022-07-27T17:59:38.618Z,17.60
2022-07-27T18:04:52.408Z,17.20
2022-07-27T18:07:23.665Z,17.00
2022-07-27T18:09:51.349Z,16.70
2022-07-27T18:15:24.228Z,16.60
2022-07-27T18:17:51.753Z,16.60
2022-07-27T18:20:19.424Z,16.70
2022-07-27T18:22:46.958Z,16.90
2022-07-27T18:25:14.752Z,17.10
2022-07-27T18:27:43.108Z,17.20
2022-07-27T18:30:12.075Z,17.30
2022-07-27T18:32:39.642Z,17.40
2022-07-27T18:35:09.343Z,17.40
2022-07-27T18:37:36.844Z,17.40
2022-07-27T18:42:51.537Z,17.40
2022-07-27T18:45:19.229Z,17.40
2022-07-27T18:47:49.121Z,17.40
2022-07-27T18:50:17.768Z,17.50
2022-07-27T18:52:45.429Z,17.40
2022-07-27T18:55:23.866Z,17.60
2022-07-27T18:57:56.493Z,17.50
2022-07-27T19:00:25.633Z,17.50
2022-07-27T19:02:56.650Z,17.50
2022-07-27T19:05:29.968Z,17.60
2022-07-27T19:08:13.777Z,17.70
2022-07-27T19:10:45.244Z,17.60
2022-07-27T19:13:13.303Z,17.60
2022-07-27T19:15:47.386Z,17.60
2022-07-27T19:18:14.996Z,17.50
2022-07-27T19:20:42.687Z,17.50
2022-07-27T19:23:12.512Z,17.50
2022-07-27T19:25:40.447Z,17.50
2022-07-27T19:28:08.093Z,17.50
2022-07-27T19:30:35.768Z,17.50
2022-07-27T19:33:03.761Z,17.50
2022-07-27T19:35:31.565Z,17.50
2022-07-27T19:37:59.256Z,17.50
2022-07-27T19:43:07.117Z,17.40
2022-07-27T19:45:36.998Z,17.40
2022-07-27T19:48:06.094Z,17.50
2022-07-27T19:50:34.405Z,17.50
2022-07-27T19:53:02.522Z,17.50
2022-07-27T19:55:31.230Z,17.30
2022-07-27T19:57:59.092Z,17.20
2022-07-27T20:00:26.764Z,17.20
2022-07-27T20:02:56.519Z,17.20
2022-07-27T20:05:24.078Z,17.30
2022-07-27T20:07:54.351Z,17.30
2022-07-27T20:10:22.131Z,17.20
2022-07-27T20:12:50.086Z,17.10
2022-07-27T20:15:22.330Z,17.20
2022-07-27T20:17:52.701Z,17.20
2022-07-27T20:20:20.884Z,17.20
2022-07-27T20:22:48.821Z,17.30
2022-07-27T20:25:18.756Z,17.30
2022-07-27T20:27:47.752Z,17.40
2022-07-27T20:30:17.362Z,17.40
2022-07-27T20:32:46.386Z,17.40
2022-07-27T20:35:16.266Z,17.40
2022-07-27T20:37:45.278Z,17.30
2022-07-27T20:40:13.547Z,17.30
2022-07-27T20:42:48.298Z,17.30
2022-07-27T20:45:15.995Z,17.20
2022-07-27T20:47:43.984Z,17.20
2022-07-27T20:50:15.351Z,17.30
2022-07-27T20:52:46.808Z,17.30
2022-07-27T20:55:14.512Z,17.20
2022-07-27T20:57:45.320Z,17.30
2022-07-27T21:00:13.507Z,17.30
2022-07-27T21:02:43.534Z,17.20
2022-07-27T21:05:11.192Z,17.20
2022-07-27T21:07:39.462Z,17.30
2022-07-27T21:10:08.491Z,17.30
2022-07-27T21:12:36.020Z,17.40
2022-07-27T21:15:06.544Z,17.40
2022-07-27T21:17:38.058Z,17.50
2022-07-27T21:20:07.025Z,17.50
2022-07-27T21:22:35.254Z,17.50
2022-07-27T21:25:03.145Z,17.50
2022-07-27T21:27:30.829Z,17.40
2022-07-27T21:29:59.469Z,17.40
2022-07-27T21:32:27.361Z,17.40
2022-07-27T21:34:55.151Z,17.40
2022-07-27T21:37:22.763Z,17.40
2022-07-27T21:39:50.654Z,17.40
2022-07-27T21:42:18.812Z,17.30
2022-07-27T21:44:46.510Z,17.20
2022-07-27T21:47:14.550Z,17.10
2022-07-27T21:49:42.769Z,17.00
2022-07-27T21:52:11.580Z,16.80
2022-07-27T21:54:39.520Z,16.70
2022-07-27T21:57:07.591Z,16.60
2022-07-27T21:59:35.302Z,16.70
2022-07-27T22:02:04.880Z,16.80
2022-07-27T22:04:32.857Z,16.90
2022-07-27T22:07:00.773Z,17.00
2022-07-27T22:09:29.737Z,16.90
2022-07-27T22:12:01.902Z,16.80
2022-07-27T22:14:30.687Z,16.90
2022-07-27T22:17:02.073Z,16.70
2022-07-27T22:19:32.692Z,16.50
2022-07-27T22:22:01.004Z,16.40
2022-07-27T22:24:28.646Z,16.40
2022-07-27T22:27:01.718Z,16.30
2022-07-27T22:29:32.125Z,16.30
2022-07-27T22:34:41.920Z,16.40
2022-07-27T22:37:10.243Z,16.50
2022-07-27T22:42:25.462Z,16.60
2022-07-27T22:44:54.833Z,16.40
2022-07-27T22:47:22.504Z,16.40
2022-07-27T22:49:50.801Z,16.30
2022-07-27T22:52:19.162Z,16.30
2022-07-27T22:54:47.723Z,16.30
2022-07-27T22:57:18.274Z,16.30
2022-07-27T22:59:46.735Z,16.30
2022-07-27T23:04:56.855Z,16.10
2022-07-27T23:07:25.279Z,16.10
2022-07-27T23:09:53.765Z,16.10
2022-07-27T23:12:25.273Z,16.10
2022-07-27T23:14:55.811Z,16.10
2022-07-27T23:17:31.918Z,16.10
2022-07-27T23:20:00.234Z,16.00
2022-07-27T23:22:28.346Z,16.00
2022-07-27T23:24:56.178Z,16.00
2022-07-27T23:27:24.107Z,16.00
2022-07-27T23:29:53.753Z,16.00
2022-07-27T23:32:22.446Z,16.10
2022-07-27T23:34:51.114Z,16.20
2022-07-27T23:37:26.890Z,16.20
2022-07-27T23:39:55.554Z,16.10
2022-07-27T23:42:23.424Z,16.10
2022-07-27T23:44:51.144Z,16.00
2022-07-27T23:52:46.255Z,15.60
2022-07-27T23:55:16.765Z,15.70
2022-07-27T23:57:46.475Z,15.70
